createdAt,value
2023-03-26T00:00:25.874Z,19.14
2023-03-26T00:02:52.336Z,19.22
2023-03-26T00:08:12.858Z,19.20
2023-03-26T00:10:39.372Z,19.19
2023-03-26T00:13:06.745Z,19.35
2023-03-26T00:15:33.166Z,19.29
2023-03-26T00:18:00.522Z,19.39
2023-03-26T00:23:12.773Z,19.30
2023-03-26T00:25:41.963Z,19.28
2023-03-26T00:28:09.195Z,19.27
2023-03-26T00:30:37.493Z,19.21
2023-03-26T00:33:03.997Z,19.26
2023-03-26T00:38:14.364Z,19.28
2023-03-26T00:40:40.710Z,19.31
2023-03-26T00:43:07.929Z,19.23
2023-03-26T00:45:34.288Z,19.25
2023-03-26T00:48:02.562Z,19.29
2023-03-26T00:53:23.431Z,19.21
2023-03-26T00:55:49.892Z,19.27
2023-03-26T00:58:16.272Z,19.37
2023-03-26T01:00:43.192Z,19.37
2023-03-26T01:03:12.961Z,19.39
2023-03-26T01:08:41.100Z,19.38
2023-03-26T01:11:08.307Z,19.30
2023-03-26T01:13:36.605Z,19.33
2023-03-26T01:16:04.929Z,19.30
2023-03-26T01:18:32.163Z,19.25
2023-03-26T01:23:42.463Z,19.35
2023-03-26T01:26:08.794Z,19.28
2023-03-26T01:28:35.141Z,19.31
2023-03-26T01:31:01.488Z,19.29
2023-03-26T01:33:27.898Z,19.32
2023-03-26T01:35:54.445Z,19.27
2023-03-26T01:38:21.012Z,19.26
2023-03-26T01:40:47.424Z,19.27
2023-03-26T01:43:14.657Z,19.25
2023-03-26T01:45:40.980Z,19.25
2023-03-26T01:48:07.312Z,19.22
2023-03-26T01:50:33.659Z,19.29
2023-03-26T01:52:59.969Z,19.23
2023-03-26T01:55:26.346Z,19.23
2023-03-26T01:57:52.717Z,19.25
2023-03-26T02:00:19.062Z,19.19
2023-03-26T02:02:45.545Z,19.28
2023-03-26T02:05:12.104Z,19.26
2023-03-26T02:07:38.460Z,19.30
2023-03-26T02:10:04.830Z,19.28
2023-03-26T02:12:31.201Z,19.30
2023-03-26T02:14:57.526Z,19.35
2023-03-26T02:17:24.145Z,19.30
2023-03-26T02:19:50.689Z,19.31
2023-03-26T02:22:17.017Z,19.25
2023-03-26T02:24:43.382Z,19.22
2023-03-26T02:27:09.707Z,19.30
2023-03-26T02:29:36.053Z,19.28
2023-03-26T02:32:02.439Z,19.32
2023-03-26T02:34:28.800Z,19.27
2023-03-26T02:36:55.147Z,19.22
2023-03-26T02:42:15.417Z,19.30
2023-03-26T02:44:41.807Z,19.29
2023-03-26T02:47:08.159Z,19.24
2023-03-26T02:49:34.508Z,19.26
2023-03-26T02:52:00.861Z,19.28
2023-03-26T02:57:10.810Z,19.22
2023-03-26T02:59:37.163Z,19.21
2023-03-26T03:02:03.672Z,19.27
2023-03-26T03:04:30.151Z,19.21
2023-03-26T03:06:56.510Z,19.19
2023-03-26T03:12:16.531Z,19.22
2023-03-26T03:14:42.905Z,19.19
2023-03-26T03:17:09.287Z,19.22
2023-03-26T03:19:35.636Z,19.20
2023-03-26T03:22:03.079Z,19.21
2023-03-26T03:27:23.101Z,19.20
2023-03-26T03:29:49.444Z,19.20
2023-03-26T03:32:15.799Z,19.27
2023-03-26T03:34:42.119Z,19.25
2023-03-26T03:37:08.467Z,19.27
2023-03-26T03:42:18.868Z,19.22
2023-03-26T03:44:45.178Z,19.27
2023-03-26T03:47:11.526Z,19.26
2023-03-26T03:49:37.859Z,19.28
2023-03-26T03:52:04.298Z,19.29
2023-03-26T03:57:14.428Z,19.26
2023-03-26T03:59:47.615Z,19.31
2023-03-26T04:02:14.507Z,19.31
2023-03-26T04:04:40.900Z,19.28
2023-03-26T04:07:07.296Z,19.30
2023-03-26T04:12:17.501Z,19.29
2023-03-26T04:14:43.858Z,19.30
2023-03-26T04:17:10.176Z,19.24
2023-03-26T04:19:36.492Z,19.25
2023-03-26T04:22:02.835Z,19.29
2023-03-26T04:27:23.060Z,19.29
2023-03-26T04:29:49.391Z,19.32
2023-03-26T04:32:15.736Z,19.27
2023-03-26T04:34:42.105Z,19.28
2023-03-26T04:37:08.471Z,19.27
2023-03-26T04:42:28.630Z,19.27
2023-03-26T04:44:54.972Z,19.27
2023-03-26T04:47:24.134Z,19.30
2023-03-26T04:49:50.509Z,19.25
2023-03-26T04:52:16.813Z,19.31
2023-03-26T04:57:36.953Z,19.24
2023-03-26T05:00:03.321Z,19.27
2023-03-26T05:02:29.681Z,19.24
2023-03-26T05:04:56.014Z,19.21
2023-03-26T05:07:25.128Z,19.24
2023-03-26T05:12:45.533Z,19.26
2023-03-26T05:15:11.897Z,19.30
2023-03-26T05:17:38.233Z,19.22
2023-03-26T05:20:04.594Z,19.21
2023-03-26T05:22:30.910Z,19.20
2023-03-26T05:24:57.252Z,19.22
2023-03-26T05:27:23.614Z,19.28
2023-03-26T05:29:49.949Z,19.28
2023-03-26T05:32:16.260Z,19.32
2023-03-26T05:34:42.620Z,19.26
2023-03-26T05:37:08.980Z,19.33
2023-03-26T05:39:35.298Z,19.29
2023-03-26T05:42:01.701Z,19.31
2023-03-26T05:44:28.038Z,19.28
2023-03-26T05:46:54.390Z,19.30
2023-03-26T05:49:20.745Z,19.35
2023-03-26T05:51:47.099Z,19.38
2023-03-26T05:54:13.427Z,19.44
2023-03-26T05:56:39.778Z,19.43
2023-03-26T05:59:06.102Z,19.43
2023-03-26T06:01:32.416Z,19.44
2023-03-26T06:03:58.788Z,19.52
2023-03-26T06:06:25.139Z,19.59
2023-03-26T06:09:02.312Z,19.62
2023-03-26T06:11:31.069Z,19.59
2023-03-26T06:13:59.383Z,19.59
2023-03-26T06:16:28.664Z,19.59
2023-03-26T06:18:56.630Z,19.58
2023-03-26T06:21:24.066Z,19.57
2023-03-26T06:23:50.510Z,19.58
2023-03-26T06:26:17.924Z,19.57
2023-03-26T06:28:44.384Z,19.54
2023-03-26T06:31:10.910Z,19.54
2023-03-26T06:33:38.336Z,19.54
2023-03-26T06:36:04.912Z,19.55
2023-03-26T06:38:32.296Z,19.44
2023-03-26T06:40:58.787Z,19.51
2023-03-26T06:46:12.247Z,19.54
2023-03-26T06:48:38.722Z,19.52
2023-03-26T06:51:06.033Z,19.56
2023-03-26T06:53:34.330Z,19.57
2023-03-26T06:56:00.711Z,19.53
2023-03-26T07:01:21.197Z,19.57
2023-03-26T07:03:47.689Z,19.59
2023-03-26T07:06:15.034Z,19.58
2023-03-26T07:08:43.374Z,19.57
2023-03-26T07:11:09.806Z,19.55
2023-03-26T07:16:30.706Z,19.54
2023-03-26T07:18:57.120Z,19.55
2023-03-26T07:21:23.503Z,19.57
2023-03-26T07:23:49.853Z,19.86
2023-03-26T07:26:16.219Z,19.74
2023-03-26T07:31:26.283Z,19.78
2023-03-26T07:33:52.620Z,19.75
2023-03-26T07:36:19.882Z,19.73
2023-03-26T07:38:46.222Z,19.72
2023-03-26T07:41:13.428Z,19.72
2023-03-26T07:46:34.986Z,19.71
2023-03-26T07:49:01.463Z,19.68
2023-03-26T07:51:29.745Z,19.68
2023-03-26T07:53:58.924Z,19.71
2023-03-26T07:56:25.466Z,19.69
2023-03-26T08:01:36.916Z,19.67
2023-03-26T08:04:25.237Z,19.67
2023-03-26T08:06:50.629Z,19.69
2023-03-26T08:09:17.055Z,19.64
2023-03-26T08:11:44.338Z,19.68
2023-03-26T08:16:55.679Z,19.74
2023-03-26T08:19:22.139Z,19.70
2023-03-26T08:21:48.590Z,19.74
2023-03-26T08:24:15.048Z,19.74
2023-03-26T08:26:41.528Z,19.67
2023-03-26T08:32:06.657Z,19.67
2023-03-26T08:34:33.151Z,19.72
2023-03-26T08:36:59.617Z,19.74
2023-03-26T08:39:26.081Z,19.65
2023-03-26T08:41:54.392Z,18.73
2023-03-26T08:47:15.727Z,18.15
2023-03-26T08:49:42.127Z,17.87
2023-03-26T08:52:09.366Z,18.07
2023-03-26T08:54:35.725Z,18.27
2023-03-26T08:57:02.103Z,17.89
2023-03-26T09:02:13.090Z,17.81
2023-03-26T09:04:39.523Z,17.76
2023-03-26T09:07:05.877Z,17.57
2023-03-26T09:09:32.213Z,17.68
2023-03-26T09:11:58.590Z,17.54
2023-03-26T09:17:09.085Z,17.73
2023-03-26T09:19:35.450Z,17.70
2023-03-26T09:22:01.820Z,17.69
2023-03-26T09:24:28.157Z,17.79
2023-03-26T09:26:54.498Z,17.63
2023-03-26T09:32:14.758Z,17.64
2023-03-26T09:34:41.213Z,17.61
2023-03-26T09:37:07.537Z,17.53
2023-03-26T09:39:36.810Z,17.41
2023-03-26T09:42:03.188Z,17.36
2023-03-26T09:47:13.225Z,17.40
2023-03-26T09:49:39.589Z,17.46
2023-03-26T09:52:05.994Z,17.46
2023-03-26T09:54:32.332Z,17.44
2023-03-26T09:57:00.269Z,17.40
2023-03-26T09:59:26.655Z,17.48
2023-03-26T10:01:52.992Z,17.52
2023-03-26T10:04:19.359Z,17.44
2023-03-26T10:06:45.675Z,17.52
2023-03-26T10:09:12.060Z,17.45
2023-03-26T10:11:38.397Z,17.49
2023-03-26T10:14:04.793Z,17.30
2023-03-26T10:16:31.221Z,17.21
2023-03-26T10:18:57.609Z,17.17
2023-03-26T10:21:26.745Z,17.24
2023-03-26T10:23:54.355Z,17.28
2023-03-26T10:26:20.862Z,17.48
2023-03-26T10:28:47.211Z,17.55
2023-03-26T10:31:13.593Z,17.67
2023-03-26T10:33:39.937Z,17.77
2023-03-26T10:36:08.309Z,17.79
2023-03-26T10:38:34.661Z,17.78
2023-03-26T10:41:01.030Z,17.76
2023-03-26T10:43:27.395Z,17.92
2023-03-26T10:45:53.834Z,17.95
2023-03-26T10:48:20.259Z,17.98
2023-03-26T10:50:46.574Z,17.69
2023-03-26T10:53:12.896Z,17.57
2023-03-26T10:55:39.211Z,17.34
2023-03-26T10:58:05.568Z,17.43
2023-03-26T11:00:31.898Z,17.39
2023-03-26T11:02:58.262Z,17.46
2023-03-26T11:05:24.667Z,17.61
2023-03-26T11:07:51.043Z,17.57
2023-03-26T11:10:17.423Z,17.57
2023-03-26T11:12:43.778Z,17.80
2023-03-26T11:15:10.082Z,17.71
2023-03-26T11:20:33.132Z,17.81
2023-03-26T11:22:59.544Z,17.66
2023-03-26T11:25:25.873Z,17.49
2023-03-26T11:27:52.196Z,17.56
2023-03-26T11:30:18.556Z,17.81
2023-03-26T11:35:40.499Z,17.78
2023-03-26T11:38:07.512Z,17.83
2023-03-26T11:40:33.844Z,17.90
2023-03-26T11:43:00.155Z,17.81
2023-03-26T11:45:26.594Z,17.82
2023-03-26T11:50:36.741Z,17.94
2023-03-26T11:53:03.059Z,18.07
2023-03-26T11:55:29.562Z,17.98
2023-03-26T11:57:55.891Z,17.95
2023-03-26T12:00:25.002Z,18.09
2023-03-26T12:05:45.176Z,18.16
2023-03-26T12:08:11.532Z,18.22
2023-03-26T12:10:38.020Z,18.38
2023-03-26T12:13:04.744Z,18.35
2023-03-26T12:15:31.085Z,18.39
2023-03-26T12:20:54.468Z,18.22
2023-03-26T12:23:20.882Z,18.33
2023-03-26T12:25:47.183Z,18.37
2023-03-26T12:28:13.514Z,18.22
2023-03-26T12:30:39.874Z,18.27
2023-03-26T12:36:02.613Z,18.41
2023-03-26T12:38:28.991Z,18.38
2023-03-26T12:40:55.428Z,18.38
2023-03-26T12:44:54.606Z,18.57
2023-03-26T12:47:57.447Z,18.66
2023-03-26T12:51:48.187Z,18.77
2023-03-26T12:54:15.411Z,18.51
2023-03-26T12:56:41.801Z,18.30
2023-03-26T12:59:08.647Z,18.38
2023-03-26T13:01:35.036Z,18.26
2023-03-26T13:06:59.515Z,18.31
2023-03-26T13:09:30.979Z,18.20
2023-03-26T13:11:57.318Z,18.29
2023-03-26T13:14:23.650Z,18.32
2023-03-26T13:16:50.084Z,18.35
2023-03-26T13:22:00.610Z,18.18
2023-03-26T13:24:26.934Z,18.24
2023-03-26T13:26:53.268Z,18.21
2023-03-26T13:29:20.657Z,18.26
2023-03-26T13:31:47.074Z,18.28
2023-03-26T13:37:11.132Z,18.36
2023-03-26T13:39:37.879Z,18.17
2023-03-26T13:42:04.315Z,18.15
2023-03-26T13:44:30.697Z,18.31
2023-03-26T13:46:57.062Z,18.27
2023-03-26T13:52:07.116Z,18.12
2023-03-26T13:54:33.488Z,18.21
2023-03-26T13:57:00.133Z,18.21
2023-03-26T13:59:26.566Z,18.28
2023-03-26T14:01:52.975Z,18.20
2023-03-26T14:07:03.464Z,18.06
2023-03-26T14:09:30.066Z,18.06
2023-03-26T14:11:56.480Z,18.07
2023-03-26T14:14:23.907Z,18.09
2023-03-26T14:16:50.347Z,18.02
2023-03-26T14:22:10.761Z,18.05
2023-03-26T14:24:37.085Z,18.29
2023-03-26T14:27:03.410Z,18.21
2023-03-26T14:29:30.209Z,17.97
2023-03-26T14:31:56.677Z,17.88
2023-03-26T14:37:06.865Z,18.05
2023-03-26T14:39:33.205Z,18.13
2023-03-26T14:41:59.549Z,18.08
2023-03-26T14:44:25.888Z,18.14
2023-03-26T14:46:55.787Z,18.11
2023-03-26T14:52:06.396Z,18.04
2023-03-26T14:54:32.735Z,18.16
2023-03-26T14:56:59.127Z,18.47
2023-03-26T14:59:25.475Z,18.59
2023-03-26T15:01:51.838Z,18.60
2023-03-26T15:04:18.219Z,18.67
2023-03-26T15:06:44.557Z,18.66
2023-03-26T15:09:10.883Z,18.78
2023-03-26T15:11:37.244Z,18.90
2023-03-26T15:14:03.559Z,18.89
2023-03-26T15:16:29.900Z,18.93
2023-03-26T15:18:56.257Z,18.93
2023-03-26T15:21:22.602Z,18.98
2023-03-26T15:23:48.937Z,18.99
2023-03-26T15:26:15.325Z,18.97
2023-03-26T15:28:41.633Z,19.03
2023-03-26T15:31:08.044Z,19.02
2023-03-26T15:33:34.345Z,19.00
2023-03-26T15:36:00.730Z,19.08
2023-03-26T15:38:27.144Z,19.02
2023-03-26T15:40:54.483Z,18.99
2023-03-26T15:43:21.274Z,18.96
2023-03-26T15:45:47.725Z,18.96
2023-03-26T15:48:14.354Z,18.94
2023-03-26T15:50:40.729Z,18.95
2023-03-26T15:53:07.091Z,19.03
2023-03-26T15:55:33.444Z,19.10
2023-03-26T15:57:59.844Z,19.07
2023-03-26T16:00:26.200Z,19.10
2023-03-26T16:02:52.590Z,19.14
2023-03-26T16:05:20.107Z,19.11
2023-03-26T16:07:49.282Z,19.09
2023-03-26T16:10:15.597Z,19.07
2023-03-26T16:12:41.946Z,19.08
2023-03-26T16:15:09.193Z,19.10
2023-03-26T16:17:35.578Z,19.10
2023-03-26T16:20:01.917Z,19.16
2023-03-26T16:25:27.732Z,19.13
2023-03-26T16:27:57.893Z,19.15
2023-03-26T16:30:24.205Z,19.16
2023-03-26T16:32:50.540Z,19.20
2023-03-26T16:35:16.928Z,19.16
2023-03-26T16:40:30.276Z,19.15
2023-03-26T16:42:56.635Z,19.17
2023-03-26T16:45:23.068Z,19.16
2023-03-26T16:47:49.611Z,19.18
2023-03-26T16:50:16.429Z,19.17
2023-03-26T16:55:26.898Z,19.16
2023-03-26T16:57:53.301Z,19.17
2023-03-26T17:00:20.566Z,19.18
2023-03-26T17:02:47.103Z,19.15
2023-03-26T17:05:13.643Z,19.16
2023-03-26T17:10:33.934Z,19.17
2023-03-26T17:13:01.187Z,19.22
2023-03-26T17:15:27.512Z,19.24
2023-03-26T17:17:54.133Z,19.20
2023-03-26T17:20:20.502Z,19.24
2023-03-26T17:25:30.910Z,19.24
2023-03-26T17:27:57.237Z,19.24
2023-03-26T17:30:23.660Z,19.22
2023-03-26T17:32:50.013Z,19.21
2023-03-26T17:35:16.440Z,19.25
2023-03-26T17:40:26.883Z,19.21
2023-03-26T17:42:53.225Z,19.22
2023-03-26T17:45:20.432Z,19.27
2023-03-26T17:47:46.836Z,19.24
2023-03-26T17:50:13.189Z,19.24
2023-03-26T17:55:23.628Z,19.24
2023-03-26T17:57:49.954Z,19.27
2023-03-26T18:00:16.335Z,19.31
2023-03-26T18:02:42.841Z,19.29
2023-03-26T18:05:09.392Z,19.27
2023-03-26T18:10:30.760Z,19.27
2023-03-26T18:12:57.178Z,19.28
2023-03-26T18:15:25.470Z,19.25
2023-03-26T18:17:53.832Z,19.27
2023-03-26T18:20:20.317Z,19.26
2023-03-26T18:25:41.038Z,19.11
2023-03-26T18:28:08.398Z,19.09
2023-03-26T18:30:36.725Z,19.06
2023-03-26T18:33:04.060Z,19.04
2023-03-26T18:35:30.480Z,19.03
2023-03-26T18:40:51.750Z,19.03
2023-03-26T18:43:28.865Z,19.03
2023-03-26T18:46:01.895Z,19.01
2023-03-26T18:48:31.073Z,19.01
2023-03-26T18:51:00.249Z,19.02
2023-03-26T18:56:26.327Z,19.00
2023-03-26T18:58:52.714Z,19.00
2023-03-26T19:01:25.392Z,18.98
2023-03-26T19:03:53.295Z,19.01
2023-03-26T19:06:19.604Z,19.00
2023-03-26T19:11:39.915Z,18.97
2023-03-26T19:14:06.468Z,18.99
2023-03-26T19:16:32.891Z,19.00
2023-03-26T19:18:59.232Z,18.98
2023-03-26T19:21:25.880Z,18.99
2023-03-26T19:26:37.355Z,18.99
2023-03-26T19:29:04.601Z,18.98
2023-03-26T19:31:31.035Z,18.99
2023-03-26T19:33:57.454Z,18.98
2023-03-26T19:36:23.786Z,18.97
2023-03-26T19:41:33.938Z,18.96
2023-03-26T19:44:00.341Z,18.96
2023-03-26T19:46:26.766Z,18.97
2023-03-26T19:48:55.057Z,18.97
2023-03-26T19:51:21.495Z,18.96
2023-03-26T19:56:42.681Z,18.95
2023-03-26T19:59:09.097Z,18.94
2023-03-26T20:01:35.528Z,18.95
2023-03-26T20:04:03.854Z,18.96
2023-03-26T20:06:42.254Z,19.15
2023-03-26T20:12:03.762Z,19.41
2023-03-26T20:14:31.052Z,19.40
2023-03-26T20:16:57.513Z,19.46
2023-03-26T20:19:23.977Z,19.48
2023-03-26T20:21:50.349Z,19.50
2023-03-26T20:27:11.562Z,19.44
2023-03-26T20:29:39.874Z,19.32
2023-03-26T20:32:07.123Z,19.37
2023-03-26T20:34:33.598Z,19.32
2023-03-26T20:37:01.970Z,19.24
2023-03-26T20:42:16.139Z,19.26
2023-03-26T20:44:42.729Z,19.27
2023-03-26T20:47:12.079Z,19.23
2023-03-26T20:49:38.574Z,19.24
2023-03-26T20:52:05.048Z,19.24
2023-03-26T20:57:17.952Z,19.22
2023-03-26T20:59:44.453Z,19.22
2023-03-26T21:02:12.867Z,19.17
2023-03-26T21:04:39.326Z,19.17
2023-03-26T21:07:15.053Z,19.17
2023-03-26T21:09:44.707Z,19.16
2023-03-26T21:12:14.175Z,19.17
2023-03-26T21:14:42.511Z,19.14
2023-03-26T21:17:08.993Z,19.19
2023-03-26T21:19:35.415Z,19.16
2023-03-26T21:22:05.368Z,19.17
2023-03-26T21:24:31.838Z,19.15
2023-03-26T21:27:01.766Z,19.16
2023-03-26T21:29:30.070Z,19.21
2023-03-26T21:31:56.517Z,19.24
2023-03-26T21:34:25.720Z,19.25
2023-03-26T21:36:52.218Z,19.19
2023-03-26T21:39:18.660Z,19.19
2023-03-26T21:41:45.148Z,19.19
2023-03-26T21:44:13.477Z,19.22
2023-03-26T21:46:39.962Z,19.22
2023-03-26T21:49:06.475Z,19.24
2023-03-26T21:51:32.940Z,19.21
2023-03-26T21:54:00.359Z,19.16
2023-03-26T21:56:26.845Z,19.25
2023-03-26T21:58:53.383Z,19.27
2023-03-26T22:01:19.929Z,19.24
2023-03-26T22:03:46.484Z,19.26
2023-03-26T22:06:13.905Z,19.22
2023-03-26T22:08:40.358Z,19.29
2023-03-26T22:11:09.784Z,19.19
2023-03-26T22:13:37.148Z,19.17
2023-03-26T22:16:04.568Z,19.21
2023-03-26T22:18:31.958Z,19.21
2023-03-26T22:20:59.368Z,19.26
2023-03-26T22:23:28.832Z,19.21
2023-03-26T22:25:58.023Z,19.23
2023-03-26T22:28:25.271Z,19.20
2023-03-26T22:30:52.635Z,19.20
2023-03-26T22:33:19.139Z,19.20
2023-03-26T22:35:47.508Z,19.14
2023-03-26T22:38:15.927Z,19.17
2023-03-26T22:40:44.236Z,19.12
2023-03-26T22:45:55.629Z,19.15
2023-03-26T22:48:22.052Z,19.09
2023-03-26T22:50:48.584Z,19.10
2023-03-26T22:53:15.076Z,19.12
2023-03-26T22:55:43.346Z,19.15
2023-03-26T23:01:08.037Z,19.18
2023-03-26T23:03:38.225Z,19.07
2023-03-26T23:06:07.427Z,19.15
2023-03-26T23:08:36.594Z,19.16
2023-03-26T23:11:05.777Z,19.14
2023-03-26T23:16:19.070Z,19.21
2023-03-26T23:18:48.287Z,19.16
2023-03-26T23:21:17.540Z,19.20
2023-03-26T23:23:43.944Z,19.16
2023-03-26T23:26:12.208Z,19.22
2023-03-26T23:31:34.606Z,19.22
2023-03-26T23:34:03.854Z,19.21
2023-03-26T23:36:30.259Z,19.23
2023-03-26T23:38:56.672Z,19.22
2023-03-26T23:41:25.855Z,19.26
2023-03-26T23:46:37.858Z,19.24
2023-03-26T23:49:07.040Z,19.23
2023-03-26T23:51:33.488Z,19.27
2023-03-26T23:54:02.651Z,19.21
2023-03-26T23:56:29.158Z,19.24
